Time;durP1;ratioP1;P1;durP2;ratioP2;P2;SDS_P1;SDS_P2;PMS_P1;PMS_P2;Temp;Humidity;BMP_temperature;BMP_pressure;BME280_temperature;BME280_humidity;BME280_pressure;Samples;Min_cycle;Max_cycle;Signal;HPM_P1;HPM_P2
2023/12/30 00:00:30;;;;;;;0.60;0.60;;;;;;;7.73;84.76;96740.41;29395;231;63008;-56
2023/12/30 00:01:01;;;;;;;0.50;0.50;;;;;;;7.76;84.68;96737.16;29395;212;63004;-61
2023/12/30 00:01:33;;;;;;;0.50;0.50;;;;;;;7.79;84.52;96728.50;29394;278;64014;-57
2023/12/30 00:02:06;;;;;;;0.50;0.50;;;;;;;7.81;84.05;96731.72;29395;240;63005;-56
2023/12/30 00:02:37;;;;;;;0.50;0.50;;;;;;;7.79;84.24;96733.91;29395;228;63009;-56
2023/12/30 00:03:08;;;;;;;0.50;0.50;;;;;;;7.78;84.30;96740.38;29395;218;63007;-55
2023/12/30 00:03:39;;;;;;;0.50;0.50;;;;;;;7.79;84.66;96731.19;29395;210;63009;-58
2023/12/30 00:04:11;;;;;;;0.50;0.50;;;;;;;7.83;84.08;96721.47;29395;218;63005;-56
2023/12/30 00:04:43;;;;;;;0.50;0.50;;;;;;;7.83;84.04;96732.25;29395;244;63009;-56
2023/12/30 00:05:17;;;;;;;0.50;0.50;;;;;;;7.81;83.87;96723.63;29395;210;63010;-57
2023/12/30 00:05:50;;;;;;;0.50;0.50;;;;;;;7.83;84.09;96728.75;29395;211;63009;-55
2023/12/30 00:06:22;;;;;;;0.50;0.50;;;;;;;7.81;83.69;96723.63;29395;244;63004;-55
2023/12/30 00:06:55;;;;;;;0.50;0.50;;;;;;;7.79;84.10;96731.19;29394;228;64013;-55
2023/12/30 00:07:27;;;;;;;0.50;0.50;;;;;;;7.79;83.92;96725.81;29395;277;63004;-58
2023/12/30 00:07:59;;;;;;;0.50;0.50;;;;;;;7.80;84.03;96732.81;29395;216;63008;-55
2023/12/30 00:08:30;;;;;;;0.50;0.50;;;;;;;7.80;83.84;96726.59;29395;241;63004;-55
2023/12/30 00:09:01;;;;;;;0.50;0.50;;;;;;;7.79;84.14;96736.59;29395;204;63009;-65
2023/12/30 00:09:32;;;;;;;0.50;0.50;;;;;;;7.81;83.79;96734.44;29395;197;63005;-56
2023/12/30 00:10:05;;;;;;;0.50;0.50;;;;;;;7.88;83.88;96728.72;29395;236;63009;-57
2023/12/30 00:10:38;;;;;;;0.50;0.50;;;;;;;7.91;83.26;96726.28;29395;225;63005;-56
2023/12/30 00:11:09;;;;;;;0.55;0.55;;;;;;;7.92;83.44;96730.59;29395;242;63009;-55
2023/12/30 00:11:40;;;;;;;0.52;0.52;;;;;;;7.91;83.53;96728.97;29395;209;63005;-55
2023/12/30 00:12:12;;;;;;;0.50;0.50;;;;;;;7.89;83.33;96731.16;29394;212;64013;-55
2023/12/30 00:12:43;;;;;;;0.50;0.50;;;;;;;7.87;83.82;96738.72;29395;248;63005;-55
2023/12/30 00:13:15;;;;;;;0.50;0.50;;;;;;;7.89;83.70;96735.75;29395;326;63009;-57
2023/12/30 00:13:46;;;;;;;0.50;0.50;;;;;;;7.88;83.62;96728.72;29395;246;63004;-56
2023/12/30 00:14:20;;;;;;;0.40;0.40;;;;;;;7.84;84.18;96723.06;29395;253;63009;-55
2023/12/30 00:14:52;;;;;;;0.50;0.50;;;;;;;7.87;84.22;96732.50;29395;224;63004;-58
2023/12/30 00:15:23;;;;;;;0.60;0.60;;;;;;;7.86;84.26;96720.91;29395;285;63009;-56
2023/12/30 00:15:54;;;;;;;0.60;0.60;;;;;;;7.86;83.80;96726.31;29395;233;63004;-55
2023/12/30 00:16:28;;;;;;;0.55;0.55;;;;;;;7.84;84.30;96723.06;29395;292;63009;-56
2023/12/30 00:17:00;;;;;;;0.52;0.52;;;;;;;7.84;84.17;96728.47;29395;334;63005;-62
2023/12/30 00:17:32;;;;;;;0.50;0.50;;;;;;;7.81;84.49;96726.34;29394;255;64014;-55
2023/12/30 00:18:04;;;;;;;0.60;0.60;;;;;;;7.81;84.75;96720.12;29395;199;63005;-57
2023/12/30 00:18:39;;;;;;;0.50;0.50;;;;;;;7.82;84.40;96725.25;29395;204;63014;-56
2023/12/30 00:19:13;;;;;;;0.50;0.50;;;;;;;7.82;84.19;96730.66;29395;198;63005;-55
2023/12/30 00:19:45;;;;;;;0.50;0.50;;;;;;;7.83;84.44;96726.88;29395;216;63009;-62
2023/12/30 00:20:17;;;;;;;0.60;0.60;;;;;;;7.82;84.59;96730.66;29395;202;63005;-55
2023/12/30 00:20:48;;;;;;;0.50;0.50;;;;;;;7.83;84.86;96718.75;29395;202;63009;-56
2023/12/30 00:21:23;;;;;;;0.50;0.50;;;;;;;7.80;84.98;96732.81;29395;202;63009;-55
2023/12/30 00:21:55;;;;;;;0.60;0.60;;;;;;;7.82;85.03;96725.25;29395;235;63009;-56
2023/12/30 00:22:28;;;;;;;0.57;0.57;;;;;;;7.81;84.69;96722.81;29395;238;63004;-56
2023/12/30 00:22:59;;;;;;;0.60;0.60;;;;;;;7.79;84.92;96720.41;29393;225;64013;-56
2023/12/30 00:23:30;;;;;;;0.55;0.55;;;;;;;7.82;84.74;96727.12;29395;216;63004;-56
2023/12/30 00:24:03;;;;;;;0.50;0.50;;;;;;;7.84;84.67;96725.78;29395;220;63009;-56
2023/12/30 00:24:35;;;;;;;0.60;0.60;;;;;;;7.90;84.30;96721.16;29395;216;63005;-57
2023/12/30 00:25:07;;;;;;;0.60;0.60;;;;;;;7.94;83.99;96728.44;29395;210;63009;-56
2023/12/30 00:25:38;;;;;;;0.50;0.50;;;;;;;7.95;83.72;96724.63;29395;210;63005;-55
2023/12/30 00:26:22;;;;;;;0.60;0.60;;;;;;;7.91;84.04;96723.56;29395;226;63009;-56
2023/12/30 00:26:54;;;;;;;0.60;0.60;;;;;;;7.91;84.01;96723.56;29395;197;63005;-56
2023/12/30 00:27:26;;;;;;;0.50;0.50;;;;;;;7.89;84.28;96720.34;29395;258;63009;-64
2023/12/30 00:27:57;;;;;;;0.55;0.55;;;;;;;7.88;84.33;96718.72;29395;245;63004;-55
2023/12/30 00:28:28;;;;;;;0.50;0.50;;;;;;;7.87;84.32;96711.72;29394;208;64013;-56
2023/12/30 00:28:59;;;;;;;0.50;0.50;;;;;;;7.87;84.24;96714.41;29395;213;63004;-56
2023/12/30 00:29:31;;;;;;;0.60;0.60;;;;;;;7.91;84.36;96712.78;29395;219;63009;-55
2023/12/30 00:30:04;;;;;;;0.50;0.50;;;;;;;7.94;84.17;96711.41;29394;236;64004;-55
2023/12/30 00:30:35;;;;;;;0.50;0.50;;;;;;;7.92;84.32;96718.97;29395;233;63008;-57
2023/12/30 00:31:06;;;;;;;0.60;0.60;;;;;;;7.93;83.75;96710.59;29394;246;64004;-56
2023/12/30 00:31:37;;;;;;;0.50;0.50;;;;;;;7.92;84.09;96702.78;29395;209;63009;-55
2023/12/30 00:32:09;;;;;;;0.47;0.47;;;;;;;7.90;83.90;96705.75;29395;267;63005;-57
2023/12/30 00:32:40;;;;;;;0.50;0.50;;;;;;;7.88;84.43;96710.63;29395;216;63009;-56
2023/12/30 00:33:14;;;;;;;0.50;0.50;;;;;;;7.88;84.08;96713.31;29395;276;63005;-56
2023/12/30 00:33:45;;;;;;;0.60;0.60;;;;;;;7.88;84.12;96707.13;29394;268;64013;-57
2023/12/30 00:34:17;;;;;;;0.60;0.60;;;;;;;7.85;84.29;96697.69;29395;229;63005;-56
2023/12/30 00:34:49;;;;;;;0.60;0.60;;;;;;;7.84;84.63;96712.28;29395;203;63009;-55
2023/12/30 00:35:22;;;;;;;0.50;0.50;;;;;;;7.90;84.27;96707.66;29395;279;63004;-59
2023/12/30 00:35:53;;;;;;;0.50;0.50;;;;;;;7.89;84.41;96709.53;29395;197;63009;-55
2023/12/30 00:36:25;;;;;;;0.50;0.50;;;;;;;7.91;83.92;96701.97;29395;217;63004;-56
2023/12/30 00:36:58;;;;;;;0.50;0.50;;;;;;;7.90;84.34;96694.94;29395;215;63009;-56
2023/12/30 00:37:29;;;;;;;1.12;1.12;;;;;;;7.89;84.29;96704.12;29395;202;63004;-55
2023/12/30 00:38:00;;;;;;;0.50;0.50;;;;;;;7.88;84.29;96705.22;29395;203;63013;-56
2023/12/30 00:38:31;;;;;;;0.60;0.60;;;;;;;7.92;84.03;96708.19;29395;227;63005;-56
2023/12/30 00:39:03;;;;;;;0.50;0.50;;;;;;;7.93;83.81;96707.09;29394;256;64014;-57
2023/12/30 00:39:35;;;;;;;0.50;0.50;;;;;;;7.92;83.73;96700.87;29395;198;63005;-56
2023/12/30 00:40:07;;;;;;;0.52;0.52;;;;;;;7.93;84.12;96710.59;29395;203;63009;-55
2023/12/30 00:40:38;;;;;;;0.50;0.50;;;;;;;7.93;84.13;96709.78;29395;199;63005;-55
2023/12/30 00:41:10;;;;;;;0.62;0.62;;;;;;;7.90;84.14;96711.16;29394;207;64013;-56
2023/12/30 00:41:41;;;;;;;0.50;0.50;;;;;;;7.99;83.95;96711.34;29395;205;63005;-59
2023/12/30 00:42:12;;;;;;;0.50;0.50;;;;;;;7.99;83.91;96706.75;29395;197;63009;-55
2023/12/30 00:42:44;;;;;;;0.50;0.50;;;;;;;7.99;83.81;96709.47;29395;242;63004;-56
2023/12/30 00:43:15;;;;;;;0.50;0.50;;;;;;;7.98;83.97;96712.44;29395;249;63009;-56
2023/12/30 00:43:46;;;;;;;0.50;0.50;;;;;;;7.94;83.88;96709.50;29395;199;63004;-56
2023/12/30 00:44:17;;;;;;;0.50;0.50;;;;;;;7.97;83.87;96705.44;29395;255;63009;-56
2023/12/30 00:44:49;;;;;;;0.50;0.50;;;;;;;7.96;83.73;96704.62;29395;214;63004;-55
2023/12/30 00:45:20;;;;;;;0.50;0.50;;;;;;;7.97;84.08;96708.94;29395;208;63008;-55
2023/12/30 00:45:51;;;;;;;0.50;0.50;;;;;;;7.94;84.17;96712.22;29395;209;63005;-55
2023/12/30 00:46:22;;;;;;;0.50;0.50;;;;;;;7.93;84.01;96704.38;29394;215;64014;-55
2023/12/30 00:46:53;;;;;;;0.50;0.50;;;;;;;7.90;84.47;96704.94;29395;246;63005;-55
2023/12/30 00:47:24;;;;;;;0.45;0.45;;;;;;;7.87;84.61;96705.50;29395;215;63009;-62
2023/12/30 00:47:59;;;;;;;0.50;0.50;;;;;;;7.86;84.43;96703.88;29395;226;63005;-55
2023/12/30 00:48:31;;;;;;;0.50;0.50;;;;;;;7.84;84.86;96709.56;29395;212;63009;-56
2023/12/30 00:49:02;;;;;;;0.50;0.50;;;;;;;7.84;84.56;96706.88;29395;218;63005;-55
2023/12/30 00:49:34;;;;;;;0.50;0.50;;;;;;;7.84;84.93;96708.75;29395;229;63009;-56
2023/12/30 00:50:06;;;;;;;0.50;0.50;;;;;;;7.84;84.83;96712.28;29395;215;63004;-56
2023/12/30 00:50:37;;;;;;;0.50;0.50;;;;;;;7.84;84.97;96708.75;29395;213;63009;-58
2023/12/30 00:51:08;;;;;;;0.50;0.50;;;;;;;7.86;84.76;96704.69;29395;237;63004;-64
2023/12/30 00:51:39;;;;;;;0.50;0.50;;;;;;;7.88;84.31;96707.94;29393;218;64013;-56
2023/12/30 00:52:13;;;;;;;0.60;0.60;;;;;;;7.86;84.62;96702.00;29395;254;63004;-57
2023/12/30 00:52:44;;;;;;;0.60;0.60;;;;;;;7.89;84.77;96701.44;29395;236;63018;-55
2023/12/30 00:53:15;;;;;;;0.60;0.60;;;;;;;7.89;84.27;96703.34;29395;203;63004;-55
2023/12/30 00:53:46;;;;;;;0.57;0.57;;;;;;;7.88;84.68;96702.53;29395;243;63009;-56
2023/12/30 00:54:17;;;;;;;0.45;0.45;;;;;;;7.88;84.42;96707.13;29395;249;63018;-56
2023/12/30 00:54:48;;;;;;;0.60;0.60;;;;;;;7.87;84.70;96702.81;29395;212;63009;-55
2023/12/30 00:55:20;;;;;;;0.50;0.50;;;;;;;7.85;84.77;96707.69;29394;205;64005;-55
2023/12/30 00:55:51;;;;;;;0.50;0.50;;;;;;;7.83;85.14;96710.66;29395;205;63009;-62
2023/12/30 00:56:22;;;;;;;0.50;0.50;;;;;;;7.82;85.07;96706.34;29395;213;63005;-57
2023/12/30 00:56:54;;;;;;;0.50;0.50;;;;;;;7.86;84.72;96704.69;29394;247;64013;-55
2023/12/30 00:57:25;;;;;;;0.60;0.60;;;;;;;7.89;84.64;96704.12;29395;202;63005;-55
2023/12/30 00:57:56;;;;;;;0.50;0.50;;;;;;;7.88;84.85;96699.81;29395;198;63009;-62
2023/12/30 00:58:27;;;;;;;0.60;0.60;;;;;;;7.86;84.46;96704.69;29395;257;63004;-55
2023/12/30 00:58:58;;;;;;;0.52;0.52;;;;;;;7.83;84.79;96705.25;29395;278;63009;-55
2023/12/30 00:59:30;;;;;;;0.50;0.50;;;;;;;7.82;84.63;96703.63;29395;207;63004;-56
2023/12/30 01:00:01;;;;;;;0.60;0.60;;;;;;;7.82;84.78;96708.22;29395;212;63020;-55
2023/12/30 01:00:32;;;;;;;0.52;0.52;;;;;;;7.82;85.00;96709.03;29395;224;63004;-55
2023/12/30 01:01:04;;;;;;;0.50;0.50;;;;;;;7.82;85.25;96711.75;29395;266;63009;-55
2023/12/30 01:01:35;;;;;;;0.60;0.60;;;;;;;7.82;85.15;96714.44;29395;198;63005;-56
2023/12/30 01:02:07;;;;;;;0.60;0.60;;;;;;;7.81;85.39;96709.31;29394;224;64014;-54
2023/12/30 01:02:38;;;;;;;0.50;0.50;;;;;;;7.79;85.55;96709.59;29395;226;63005;-56
2023/12/30 01:03:09;;;;;;;0.55;0.55;;;;;;;7.79;85.40;96709.59;29395;220;63009;-55
2023/12/30 01:03:40;;;;;;;0.60;0.60;;;;;;;7.79;85.14;96720.41;29394;233;64005;-55
2023/12/30 01:04:12;;;;;;;0.50;0.50;;;;;;;7.78;85.58;96718.78;29395;214;63009;-55
2023/12/30 01:04:43;;;;;;;0.60;0.60;;;;;;;7.80;85.46;96713.09;29395;313;63005;-56
2023/12/30 01:05:15;;;;;;;0.55;0.55;;;;;;;7.84;85.47;96723.06;29395;197;63009;-64
2023/12/30 01:05:47;;;;;;;0.52;0.52;;;;;;;7.87;85.37;96717.13;29395;249;63004;-56
2023/12/30 01:06:19;;;;;;;0.60;0.60;;;;;;;7.91;85.33;96715.47;29395;249;63009;-56
2023/12/30 01:06:51;;;;;;;0.50;0.50;;;;;;;7.88;84.93;96718.72;29395;236;63004;-56
2023/12/30 01:07:22;;;;;;;0.60;0.60;;;;;;;7.86;85.12;96715.50;29394;292;64013;-57
2023/12/30 01:07:54;;;;;;;0.52;0.52;;;;;;;7.87;85.14;96716.31;29395;336;63004;-54
2023/12/30 01:08:27;;;;;;;0.82;0.82;;;;;;;7.96;84.86;96720.84;29395;303;63009;-56
2023/12/30 01:08:58;;;;;;;0.55;0.55;;;;;;;8.01;84.48;96717.28;29395;254;63005;-56
2023/12/30 01:09:29;;;;;;;0.50;0.50;;;;;;;8.00;84.56;96718.38;29395;223;63023;-57
2023/12/30 01:10:01;;;;;;;0.60;0.60;;;;;;;8.00;84.34;96716.47;29395;249;63005;-55
2023/12/30 01:10:32;;;;;;;0.60;0.60;;;;;;;8.01;84.67;96712.69;29395;214;63009;-55
2023/12/30 01:11:05;;;;;;;0.50;0.50;;;;;;;7.99;84.93;96724.84;29395;222;63005;-55
2023/12/30 01:11:36;;;;;;;0.50;0.50;;;;;;;7.99;84.56;96720.25;29395;203;63009;-56
2023/12/30 01:12:09;;;;;;;0.80;0.80;;;;;;;8.06;83.90;96720.75;29395;210;63005;-59
2023/12/30 01:12:41;;;;;;;0.50;0.50;;;;;;;8.07;83.78;96719.69;29394;197;64013;-55
2023/12/30 01:13:12;;;;;;;0.50;0.50;;;;;;;8.04;83.56;96716.72;29395;254;63004;-55
2023/12/30 01:13:44;;;;;;;0.75;0.75;;;;;;;8.01;84.09;96722.69;29395;253;63009;-55
2023/12/30 01:14:15;;;;;;;0.60;0.60;;;;;;;7.95;84.06;96730.03;29395;220;63004;-55
2023/12/30 01:14:46;;;;;;;0.60;0.60;;;;;;;7.93;84.30;96728.69;29395;220;63009;-56
2023/12/30 01:15:18;;;;;;;0.50;0.50;;;;;;;7.91;84.58;96728.19;29395;257;63004;-56
2023/12/30 01:15:49;;;;;;;0.50;0.50;;;;;;;7.89;84.83;96720.34;29395;222;63008;-55
2023/12/30 01:16:20;;;;;;;0.50;0.50;;;;;;;7.91;84.83;96728.19;29395;329;63005;-60
2023/12/30 01:16:51;;;;;;;0.60;0.60;;;;;;;7.98;84.52;96726.75;29395;242;63009;-56
2023/12/30 01:17:22;;;;;;;0.50;0.50;;;;;;;7.96;84.24;96725.44;29395;215;63005;-57
2023/12/30 01:17:54;;;;;;;0.50;0.50;;;;;;;7.93;84.47;96726.81;29394;269;64005;-57
2023/12/30 01:18:25;;;;;;;0.60;0.60;;;;;;;7.95;84.43;96732.75;29395;263;63005;-57
2023/12/30 01:18:57;;;;;;;0.60;0.60;;;;;;;7.95;84.92;96724.63;29395;203;63009;-57
2023/12/30 01:19:28;;;;;;;0.60;0.60;;;;;;;7.93;84.67;96732.22;29395;246;63005;-56
2023/12/30 01:20:01;;;;;;;0.50;0.50;;;;;;;7.90;84.83;96738.16;29395;207;63009;-57
2023/12/30 01:20:32;;;;;;;0.70;0.70;;;;;;;7.88;84.98;96734.94;29395;255;63004;-55
2023/12/30 01:21:04;;;;;;;0.50;0.50;;;;;;;7.87;85.37;96727.12;29395;237;63009;-56
2023/12/30 01:21:36;;;;;;;0.57;0.57;;;;;;;7.87;85.47;96733.31;29395;219;63004;-58
2023/12/30 01:22:08;;;;;;;0.60;0.60;;;;;;;7.91;85.03;96738.97;29395;304;63018;-56
2023/12/30 01:22:39;;;;;;;0.50;0.50;;;;;;;7.90;84.91;96738.16;29395;196;63004;-56
2023/12/30 01:23:10;;;;;;;0.50;0.50;;;;;;;7.90;85.72;96737.38;29394;197;64013;-61
2023/12/30 01:23:41;;;;;;;0.55;0.55;;;;;;;7.88;85.34;96734.94;29395;323;63005;-54
2023/12/30 01:24:12;;;;;;;0.60;0.60;;;;;;;7.86;85.68;96736.31;29395;345;63009;-55
2023/12/30 01:24:44;;;;;;;0.60;0.60;;;;;;;7.85;85.62;96740.09;29395;356;63005;-55
2023/12/30 01:25:15;;;;;;;0.50;0.50;;;;;;;7.86;86.09;96742.50;29395;210;63009;-55
2023/12/30 01:25:46;;;;;;;0.50;0.50;;;;;;;7.84;85.71;96739.28;29395;198;63005;-56
2023/12/30 01:26:17;;;;;;;0.60;0.60;;;;;;;7.84;86.83;96741.19;29395;198;63009;-56
2023/12/30 01:26:48;;;;;;;0.50;0.50;;;;;;;7.81;87.66;96734.44;29395;317;63005;-55
2023/12/30 01:27:19;;;;;;;0.50;0.50;;;;;;;7.79;87.37;96741.19;29395;276;63009;-55
2023/12/30 01:27:51;;;;;;;0.60;0.60;;;;;;;7.77;87.13;96743.38;29395;255;63004;-55
2023/12/30 01:28:22;;;;;;;0.50;0.50;;;;;;;7.75;86.99;96732.84;29394;202;64013;-63
2023/12/30 01:28:53;;;;;;;0.50;0.50;;;;;;;7.73;86.71;96732.31;29395;210;63004;-55
2023/12/30 01:29:26;;;;;;;0.50;0.50;;;;;;;7.72;86.91;96746.91;29394;207;64013;-61
2023/12/30 01:29:58;;;;;;;0.50;0.50;;;;;;;7.72;87.15;96736.91;29395;230;63004;-61
2023/12/30 01:30:29;;;;;;;0.60;0.60;;;;;;;7.74;87.68;96733.94;29395;214;63008;-55
2023/12/30 01:31:01;;;;;;;0.60;0.60;;;;;;;7.76;87.55;96747.16;29395;210;63015;-55
2023/12/30 01:31:34;;;;;;;0.60;0.60;;;;;;;7.75;87.33;96740.94;29395;233;63009;-55
2023/12/30 01:32:08;;;;;;;0.60;0.60;;;;;;;7.79;87.01;96738.50;29395;323;63014;-56
2023/12/30 01:32:40;;;;;;;0.50;0.50;;;;;;;7.78;86.93;96745.78;29395;355;63009;-54
2023/12/30 01:33:11;;;;;;;0.50;0.50;;;;;;;7.76;86.99;96742.56;29395;226;63005;-55
2023/12/30 01:33:43;;;;;;;0.60;0.60;;;;;;;7.73;87.05;96743.12;29395;222;63009;-55
2023/12/30 01:34:14;;;;;;;0.60;0.60;;;;;;;7.73;86.92;96753.91;29395;222;63005;-56
2023/12/30 01:34:47;;;;;;;0.60;0.60;;;;;;;7.77;87.29;96754.97;29394;219;64013;-56
2023/12/30 01:35:18;;;;;;;0.60;0.60;;;;;;;7.79;87.13;96752.81;29395;228;63000;-62
2023/12/30 01:35:49;;;;;;;0.60;0.60;;;;;;;7.78;87.05;96748.50;29395;196;63009;-55
2023/12/30 01:36:21;;;;;;;0.50;0.50;;;;;;;7.76;86.98;96758.75;29395;203;63004;-56
2023/12/30 01:36:55;;;;;;;0.60;0.60;;;;;;;7.77;87.01;96754.19;29395;225;63009;-55
2023/12/30 01:37:26;;;;;;;0.60;0.60;;;;;;;7.78;87.17;96762.00;29395;267;63004;-55
2023/12/30 01:37:57;;;;;;;0.50;0.50;;;;;;;7.75;86.96;96757.16;29395;202;63008;-55
2023/12/30 01:38:29;;;;;;;0.50;0.50;;;;;;;7.74;86.94;96764.44;29395;201;63004;-55
2023/12/30 01:39:00;;;;;;;0.50;0.50;;;;;;;7.72;87.18;96763.09;29395;220;63009;-55
2023/12/30 01:39:31;;;;;;;0.95;0.95;;;;;;;7.73;88.00;96759.31;29395;244;63005;-57
2023/12/30 01:40:03;;;;;;;0.60;0.60;;;;;;;7.73;88.05;96764.72;29394;214;64013;-62
2023/12/30 01:40:35;;;;;;;0.50;0.50;;;;;;;7.74;87.78;96760.94;29395;266;63005;-62
2023/12/30 01:41:06;;;;;;;0.60;0.60;;;;;;;7.72;88.34;96765.81;29395;271;63009;-55
2023/12/30 01:41:37;;;;;;;0.57;0.57;;;;;;;7.72;89.09;96765.81;29395;218;63005;-55
2023/12/30 01:42:09;;;;;;;0.60;0.60;;;;;;;7.70;88.91;96765.28;29395;217;63009;-55
2023/12/30 01:42:40;;;;;;;0.60;0.60;;;;;;;7.67;89.26;96765.81;29395;267;63004;-62
2023/12/30 01:43:28;;;;;;;0.50;0.50;;;;;;;7.60;90.14;96759.94;29395;199;63009;-55
2023/12/30 01:43:59;;;;;;;0.50;0.50;;;;;;;7.60;89.79;96765.34;29395;220;63004;-56
2023/12/30 01:44:31;;;;;;;0.50;0.50;;;;;;;7.57;90.66;96763.19;29395;239;63008;-55
2023/12/30 01:45:02;;;;;;;0.50;0.50;;;;;;;7.54;91.48;96766.44;29395;223;63004;-55
2023/12/30 01:45:35;;;;;;;0.50;0.50;;;;;;;7.51;91.50;96769.69;29394;207;64014;-55
2023/12/30 01:46:09;;;;;;;0.60;0.60;;;;;;;7.48;91.52;96764.84;29395;235;63017;-55
2023/12/30 01:46:41;;;;;;;0.50;0.50;;;;;;;7.46;91.09;96767.00;29395;216;63009;-55
2023/12/30 01:47:12;;;;;;;0.50;0.50;;;;;;;7.45;91.80;96773.47;29395;209;63005;-54
2023/12/30 01:47:44;;;;;;;0.50;0.50;;;;;;;7.43;92.63;96765.66;29395;200;63017;-55
2023/12/30 01:48:15;;;;;;;0.50;0.50;;;;;;;7.40;92.67;96771.59;29395;216;63005;-56
2023/12/30 01:48:48;;;;;;;0.60;0.60;;;;;;;7.39;92.67;96770.00;29395;209;63009;-55
2023/12/30 01:49:20;;;;;;;0.57;0.57;;;;;;;7.36;94.73;96767.84;29395;211;63005;-55
2023/12/30 01:49:51;;;;;;;0.57;0.57;;;;;;;7.35;94.32;96774.31;29395;234;63009;-55
2023/12/30 01:50:22;;;;;;;0.50;0.50;;;;;;;7.32;94.17;96770.28;29395;253;63004;-55
2023/12/30 01:50:59;;;;;;;0.50;0.50;;;;;;;7.31;93.99;96768.66;29394;212;64013;-54
2023/12/30 01:51:31;;;;;;;0.50;0.50;;;;;;;7.29;94.12;96764.63;29394;215;64009;-56
2023/12/30 01:52:03;;;;;;;0.60;0.60;;;;;;;7.28;93.79;96771.09;29395;224;63008;-55
2023/12/30 01:52:38;;;;;;;0.50;0.50;;;;;;;7.29;94.45;96770.00;29395;222;63000;-55
2023/12/30 01:53:10;;;;;;;0.50;0.50;;;;;;;7.29;95.44;96770.00;29395;219;63009;-55
2023/12/30 01:53:43;;;;;;;0.52;0.52;;;;;;;7.28;95.79;96769.22;29395;269;63011;-56
2023/12/30 01:54:17;;;;;;;0.60;0.60;;;;;;;7.29;95.47;96776.22;29395;197;63009;-56
2023/12/30 01:54:48;;;;;;;0.50;0.50;;;;;;;7.27;95.56;96767.63;29395;237;63005;-55
2023/12/30 01:55:20;;;;;;;0.60;0.60;;;;;;;7.27;95.59;96774.91;29395;326;63009;-55
2023/12/30 01:55:53;;;;;;;0.50;0.50;;;;;;;7.25;95.88;96769.78;29395;210;63005;-63
2023/12/30 01:56:25;;;;;;;0.60;0.60;;;;;;;7.23;96.18;96771.94;29395;209;63009;-56
2023/12/30 01:56:59;;;;;;;0.50;0.50;;;;;;;7.22;96.48;96773.03;29394;263;64009;-55
2023/12/30 01:57:31;;;;;;;0.50;0.50;;;;;;;7.22;96.60;96769.53;29395;265;63009;-55
2023/12/30 01:58:03;;;;;;;0.60;0.60;;;;;;;7.20;96.29;96769.78;29395;324;63009;-55
2023/12/30 01:58:38;;;;;;;0.55;0.55;;;;;;;7.20;96.43;96777.87;29395;253;63009;-56
2023/12/30 01:59:11;;;;;;;0.60;0.60;;;;;;;7.18;96.61;96780.06;29395;232;63004;-55
2023/12/30 01:59:45;;;;;;;0.50;0.50;;;;;;;7.18;98.06;96779.25;29395;252;63008;-55
2023/12/30 02:00:20;;;;;;;0.60;0.60;;;;;;;7.15;98.50;96777.91;29395;311;63004;-55
2023/12/30 02:00:52;;;;;;;0.50;0.50;;;;;;;7.16;97.98;96782.22;29394;204;64014;-63
2023/12/30 02:01:26;;;;;;;0.60;0.60;;;;;;;7.16;97.94;96778.72;29395;213;63005;-54
2023/12/30 02:01:58;;;;;;;0.60;0.60;;;;;;;7.17;97.82;96780.31;29395;203;63009;-55
2023/12/30 02:02:30;;;;;;;0.52;0.52;;;;;;;7.17;97.62;96786.53;29395;255;63005;-55
2023/12/30 02:03:01;;;;;;;0.50;0.50;;;;;;;7.18;97.42;96793.53;29395;222;63009;-56
2023/12/30 02:03:34;;;;;;;0.50;0.50;;;;;;;7.18;96.96;96792.72;29395;281;63005;-62
2023/12/30 02:04:08;;;;;;;0.60;0.60;;;;;;;7.16;97.63;96793.00;29395;207;63026;-55
2023/12/30 02:04:40;;;;;;;0.60;0.60;;;;;;;7.15;96.93;96780.59;29395;224;63004;-55
2023/12/30 02:05:12;;;;;;;0.60;0.60;;;;;;;7.13;97.62;96788.16;29395;213;63009;-55
2023/12/30 02:05:45;;;;;;;0.60;0.60;;;;;;;7.11;97.94;96782.22;29395;224;63004;-54
2023/12/30 02:06:17;;;;;;;0.60;0.60;;;;;;;7.10;98.10;96783.31;29394;280;64004;-55
2023/12/30 02:06:49;;;;;;;0.57;0.57;;;;;;;7.09;98.17;96783.56;29395;209;63011;-55
2023/12/30 02:07:20;;;;;;;0.50;0.50;;;;;;;7.07;98.37;96789.25;29395;222;63008;-56
2023/12/30 02:07:51;;;;;;;0.50;0.50;;;;;;;7.06;98.01;96779.53;29395;290;63004;-56
2023/12/30 02:08:23;;;;;;;0.60;0.60;;;;;;;7.05;98.00;96791.41;29395;343;63009;-56
2023/12/30 02:08:54;;;;;;;0.60;0.60;;;;;;;7.04;98.17;96787.88;29395;203;63005;-55
2023/12/30 02:09:26;;;;;;;0.60;0.60;;;;;;;7.04;98.32;96789.78;29395;211;63009;-55
2023/12/30 02:09:57;;;;;;;0.60;0.60;;;;;;;7.05;98.32;96791.41;29395;205;63012;-55
2023/12/30 02:10:28;;;;;;;0.50;0.50;;;;;;;7.11;97.89;96793.00;29395;243;63009;-55
2023/12/30 02:11:00;;;;;;;0.60;0.60;;;;;;;7.15;97.80;96788.69;29395;252;63005;-55
2023/12/30 02:11:32;;;;;;;0.60;0.60;;;;;;;7.23;97.42;96780.03;29394;225;64013;-55
2023/12/30 02:12:04;;;;;;;0.60;0.60;;;;;;;7.25;96.75;96794.06;29395;242;63017;-55
2023/12/30 02:12:35;;;;;;;0.60;0.60;;;;;;;7.23;96.68;96788.12;29395;197;63009;-56
2023/12/30 02:13:10;;;;;;;0.50;0.50;;;;;;;7.20;96.79;96788.69;29395;235;63004;-56
2023/12/30 02:13:45;;;;;;;0.50;0.50;;;;;;;7.21;96.90;96800.28;29395;248;63009;-55
2023/12/30 02:14:30;;;;;;;0.60;0.60;;;;;;;7.18;96.92;96790.84;29395;227;63004;-55
2023/12/30 02:15:15;;;;;;;0.60;0.60;;;;;;;7.15;96.85;96790.59;29395;207;63008;-55
2023/12/30 02:15:46;;;;;;;0.60;0.60;;;;;;;7.13;96.70;96790.84;29395;243;63005;-56
2023/12/30 02:16:17;;;;;;;0.50;0.50;;;;;;;7.13;96.73;96796.25;29395;218;63009;-56
2023/12/30 02:16:49;;;;;;;0.55;0.55;;;;;;;7.14;97.03;96789.78;29394;207;64009;-56
2023/12/30 02:17:21;;;;;;;0.60;0.60;;;;;;;7.14;97.13;96789.78;29395;231;63009;-55
2023/12/30 02:17:56;;;;;;;0.50;0.50;;;;;;;7.14;97.48;96784.37;29395;230;63005;-55
2023/12/30 02:18:27;;;;;;;0.60;0.60;;;;;;;7.12;97.36;96789.22;29394;199;64013;-55
2023/12/30 02:18:58;;;;;;;0.60;0.60;;;;;;;7.12;97.30;96791.13;29395;255;63005;-56
2023/12/30 02:19:29;;;;;;;0.50;0.50;;;;;;;7.12;97.44;96785.72;29395;205;63018;-55
2023/12/30 02:20:01;;;;;;;0.60;0.60;;;;;;;7.12;97.35;96791.94;29395;210;63004;-56
2023/12/30 02:20:33;;;;;;;0.60;0.60;;;;;;;7.11;97.66;96793.00;29395;235;63009;-55
2023/12/30 02:21:05;;;;;;;0.50;0.50;;;;;;;7.10;98.83;96796.78;29395;218;63004;-56
2023/12/30 02:21:38;;;;;;;0.50;0.50;;;;;;;7.09;99.11;96797.88;29395;210;63009;-55
2023/12/30 02:22:09;;;;;;;0.50;0.50;;;;;;;7.10;98.54;96799.50;29395;294;63004;-56
2023/12/30 02:22:44;;;;;;;0.50;0.50;;;;;;;7.11;98.21;96798.41;29395;295;63008;-56
2023/12/30 02:23:15;;;;;;;0.57;0.57;;;;;;;7.12;97.94;96796.53;29395;350;63001;-55
2023/12/30 02:23:53;;;;;;;0.57;0.57;;;;;;;7.10;98.12;96794.09;29394;241;64014;-56
2023/12/30 02:24:26;;;;;;;0.50;0.50;;;;;;;7.10;98.09;96799.50;29395;207;63005;-55
2023/12/30 02:24:59;;;;;;;0.50;0.50;;;;;;;7.08;98.14;96801.66;29395;360;63009;-56
2023/12/30 02:25:31;;;;;;;0.60;0.60;;;;;;;7.07;98.08;96800.03;29395;294;63005;-56
2023/12/30 02:26:05;;;;;;;0.60;0.60;;;;;;;7.06;98.14;96795.72;29395;226;63024;-56
2023/12/30 02:26:36;;;;;;;0.50;0.50;;;;;;;7.05;97.96;96797.59;29395;242;63005;-56
2023/12/30 02:27:09;;;;;;;0.60;0.60;;;;;;;7.04;98.30;96796.00;29395;211;63009;-56
2023/12/30 02:27:43;;;;;;;0.60;0.60;;;;;;;7.04;98.25;96796.00;29395;211;63004;-56
2023/12/30 02:28:14;;;;;;;0.50;0.50;;;;;;;7.05;99.06;96792.22;29395;197;63009;-55
2023/12/30 02:28:45;;;;;;;0.60;0.60;;;;;;;7.02;99.17;96797.34;29394;203;64009;-55
2023/12/30 02:29:17;;;;;;;0.60;0.60;;;;;;;7.01;99.21;96784.94;29394;215;64013;-56
2023/12/30 02:29:48;;;;;;;0.50;0.50;;;;;;;6.99;99.18;96787.09;29395;209;63004;-57
2023/12/30 02:30:21;;;;;;;0.50;0.50;;;;;;;6.98;99.14;96788.16;29395;275;63008;-56
2023/12/30 02:30:52;;;;;;;0.50;0.50;;;;;;;6.97;99.13;96789.25;29395;219;63005;-56
2023/12/30 02:31:23;;;;;;;0.60;0.60;;;;;;;6.98;99.24;96783.59;29395;265;63009;-56
2023/12/30 02:31:55;;;;;;;0.55;0.55;;;;;;;7.01;99.53;96796.53;29395;319;63005;-56
2023/12/30 02:32:26;;;;;;;0.50;0.50;;;;;;;7.05;99.28;96791.41;29395;197;63009;-56
2023/12/30 02:32:58;;;;;;;0.50;0.50;;;;;;;7.05;99.06;96786.00;29395;204;63005;-56
2023/12/30 02:33:32;;;;;;;0.50;0.50;;;;;;;7.03;99.32;96788.16;29395;199;63009;-55
2023/12/30 02:34:03;;;;;;;0.60;0.60;;;;;;;7.01;98.93;96791.13;29395;269;63005;-55
2023/12/30 02:34:34;;;;;;;0.50;0.50;;;;;;;7.02;98.87;96781.16;29394;227;64013;-63
2023/12/30 02:35:06;;;;;;;0.50;0.50;;;;;;;7.02;99.05;96791.94;29395;232;63004;-56